Time;durP1;ratioP1;P1;durP2;ratioP2;P2;SDS_P1;SDS_P2;PMS_P1;PMS_P2;Temp;Humidity;BMP_temperature;BMP_pressure;BME280_temperature;BME280_humidity;BME280_pressure;Samples;Min_cycle;Max_cycle;Signal;HPM_P1;HPM_P2
2023/02/01 00:02:06;;;;;;;20.45;3.40;;;;;;;9.89;56.62;102104.63;5022250;28;20040;-42
2023/02/01 00:04:32;;;;;;;18.83;3.03;;;;;;;9.98;56.38;102110.16;5024545;28;20034;-42
2023/02/01 00:06:57;;;;;;;22.48;3.15;;;;;;;9.94;55.87;102110.91;5024884;28;20061;-41
2023/02/01 00:09:23;;;;;;;17.48;2.88;;;;;;;10.18;54.99;102106.59;5020929;28;20037;-41
2023/02/01 00:11:48;;;;;;;27.00;3.17;;;;;;;9.98;55.79;102108.47;5022933;28;20047;-44
2023/02/01 00:14:13;;;;;;;21.70;4.00;;;;;;;9.94;55.45;102103.94;5018873;28;20029;-41
2023/02/01 00:16:39;;;;;;;20.10;2.80;;;;;;;10.11;55.30;102105.47;5022432;28;20492;-41
2023/02/01 00:19:11;;;;;;;17.83;3.28;;;;;;;10.05;55.48;102110.44;5021283;28;20034;-41
2023/02/01 00:21:36;;;;;;;23.27;3.78;;;;;;;9.75;55.79;102114.56;5018437;28;20049;-41
2023/02/01 00:24:02;;;;;;;20.70;3.08;;;;;;;9.96;54.76;102110.13;5022377;28;20033;-41
2023/02/01 00:26:38;;;;;;;16.90;3.00;;;;;;;10.14;55.00;102102.06;5018162;28;20045;-42
2023/02/01 00:29:06;;;;;;;20.52;3.15;;;;;;;9.72;55.81;102104.91;5022032;28;20049;-44
2023/02/01 00:31:32;;;;;;;18.83;3.35;;;;;;;9.69;56.41;102116.94;5017425;28;20038;-42
2023/02/01 00:33:57;;;;;;;22.88;3.63;;;;;;;9.62;56.74;102092.41;5021656;28;20195;-42
2023/02/01 00:36:23;;;;;;;22.70;3.30;;;;;;;9.59;56.88;102105.28;5018069;28;20025;-42
2023/02/01 00:38:48;;;;;;;24.00;3.22;;;;;;;9.88;56.04;102108.09;5021708;28;20527;-43
2023/02/01 00:41:17;;;;;;;15.13;3.10;;;;;;;9.85;56.08;102114.06;5017374;28;20045;-44
2023/02/01 00:43:42;;;;;;;21.92;3.17;;;;;;;9.62;56.98;102113.22;5021979;28;20065;-41
2023/02/01 00:46:08;;;;;;;17.33;3.00;;;;;;;9.76;55.84;102103.28;5017810;28;20547;-42
2023/02/01 00:48:33;;;;;;;19.17;3.20;;;;;;;10.01;55.88;102094.63;5029618;22;20041;-76
2023/02/01 00:51:05;;;;;;;16.05;3.10;;;;;;;9.71;55.76;102082.31;5021883;28;20107;-76
2023/02/01 00:53:30;;;;;;;24.35;3.00;;;;;;;9.99;55.97;102085.91;5021997;28;20046;-76
2023/02/01 00:55:56;;;;;;;22.88;3.00;;;;;;;10.25;55.24;102078.97;5025583;28;20030;-75
2023/02/01 00:58:23;;;;;;;22.75;2.95;;;;;;;9.95;56.10;102069.25;5021495;28;20037;-76
2023/02/01 01:00:49;;;;;;;22.95;3.08;;;;;;;9.86;56.54;102076.78;5025609;28;20025;-76
2023/02/01 01:03:18;;;;;;;22.92;3.45;;;;;;;9.51;57.57;102075.50;5021587;28;20079;-75
2023/02/01 01:05:48;;;;;;;19.65;3.28;;;;;;;10.07;56.56;102074.91;5026040;28;20073;-75
2023/02/01 01:08:14;;;;;;;24.27;3.55;;;;;;;10.00;56.23;102074.66;5021535;28;20044;-76
2023/02/01 01:10:40;;;;;;;22.60;3.38;;;;;;;9.90;56.91;102082.97;5025396;28;20064;-76
2023/02/01 01:13:05;;;;;;;19.60;3.53;;;;;;;10.13;56.23;102069.00;5020974;28;20426;-76
2023/02/01 01:15:30;;;;;;;21.83;3.75;;;;;;;9.99;56.84;102078.97;5025124;28;20076;-76
2023/02/01 01:17:56;;;;;;;21.23;3.10;;;;;;;10.03;57.28;102077.34;5025704;28;20033;-76
2023/02/01 01:20:21;;;;;;;22.40;3.40;;;;;;;10.00;56.91;102087.69;5020429;28;20033;-76
2023/02/01 01:22:47;;;;;;;19.25;2.72;;;;;;;9.98;57.87;102078.91;5025570;28;20034;-76
2023/02/01 01:25:14;;;;;;;20.80;3.40;;;;;;;9.69;58.43;102088.31;5021094;28;20049;-75
2023/02/01 01:27:39;;;;;;;26.38;3.45;;;;;;;9.85;58.46;102074.09;5025290;28;20549;-76
2023/02/01 01:30:06;;;;;;;27.55;3.67;;;;;;;9.91;58.19;102092.56;5021931;28;20064;-76
2023/02/01 01:32:31;;;;;;;23.27;3.10;;;;;;;10.14;57.78;102092.50;5023995;28;20041;-76
2023/02/01 01:41:39;;;;;;;23.30;3.20;;;;;;;9.82;59.01;102087.88;5079953;28;20532;-45
2023/02/01 01:44:26;;;;;;;27.77;3.35;;;;;;;10.04;58.78;102082.63;5081098;28;20032;-40
2023/02/01 01:46:51;;;;;;;26.30;3.63;;;;;;;10.06;58.57;102091.34;5083777;28;20036;-41
2023/02/01 01:49:21;;;;;;;24.33;3.50;;;;;;;9.99;59.10;102075.47;5080915;28;20532;-41
2023/02/01 01:51:58;;;;;;;25.77;3.33;;;;;;;9.81;59.38;102069.63;5086250;28;20044;-43
2023/02/01 01:54:28;;;;;;;22.02;3.33;;;;;;;9.75;59.69;102085.94;5089709;22;20056;-43
2023/02/01 01:57:00;;;;;;;26.45;3.92;;;;;;;9.78;59.21;102075.59;5066301;28;20525;-43
2023/02/01 01:59:26;;;;;;;25.52;3.17;;;;;;;9.80;59.43;102079.16;5062601;28;20054;-44
2023/02/01 02:01:52;;;;;;;21.90;3.05;;;;;;;9.97;58.66;102082.34;5064789;28;20056;-42
2023/02/01 02:04:18;;;;;;;23.67;4.15;;;;;;;9.77;59.24;102073.81;5061456;28;20075;-45
2023/02/01 02:06:49;;;;;;;20.40;3.47;;;;;;;10.05;58.91;102075.69;5065156;28;20070;-44
2023/02/01 02:09:16;;;;;;;24.98;3.72;;;;;;;9.97;58.75;102074.53;5060955;28;20522;-42
2023/02/01 02:11:41;;;;;;;27.95;3.42;;;;;;;10.03;58.44;102059.09;5063700;28;20052;-45
2023/02/01 02:14:11;;;;;;;27.77;3.20;;;;;;;9.84;59.11;102054.09;5060932;28;20580;-42
2023/02/01 02:17:03;;;;;;;28.67;3.25;;;;;;;10.06;58.57;102054.03;5064901;28;20028;-41
2023/02/01 02:19:31;;;;;;;24.25;3.75;;;;;;;9.87;58.79;102047.28;5061433;28;20033;-41
2023/02/01 02:22:24;;;;;;;23.15;3.10;;;;;;;10.07;58.42;102047.94;5046221;28;20044;-42
2023/02/01 02:25:17;;;;;;;22.25;3.63;;;;;;;9.97;58.40;102056.28;5062250;28;20039;-45
2023/02/01 02:27:58;;;;;;;27.60;3.97;;;;;;;9.93;58.28;102049.22;5061299;28;20133;-42
2023/02/01 02:30:51;;;;;;;26.83;3.58;;;;;;;9.95;58.55;102042.31;5060057;28;20090;-44
2023/02/01 02:33:29;;;;;;;26.80;4.05;;;;;;;9.96;58.93;102059.72;5060891;28;20035;-43
2023/02/01 02:36:01;;;;;;;25.60;3.83;;;;;;;9.74;59.22;102065.91;5064750;28;20032;-42
2023/02/01 02:38:32;;;;;;;27.67;3.92;;;;;;;9.93;59.14;102057.91;5062484;28;20048;-44
2023/02/01 02:47:23;;;;;;;26.58;3.50;;;;;;;10.04;59.13;102056.56;5047732;28;20033;-42
2023/02/01 02:55:46;;;;;;;16.90;3.00;;;;;;;9.94;58.39;102031.00;5041260;28;20036;-43
2023/02/01 03:06:27;;;;;;;20.33;3.50;;;;;;;9.96;59.03;102013.72;5060270;28;20468;-42
2023/02/01 03:08:57;;;;;;;21.67;3.25;;;;;;;10.04;58.65;101995.75;5063586;28;20036;-47
2023/02/01 03:12:55;;;;;;;27.48;3.58;;;;;;;9.82;59.45;102007.16;5059458;28;20070;-41
2023/02/01 03:14:12;;;;;;;23.17;3.50;;;;;;;9.56;59.90;102014.06;5057103;28;20583;-42
2023/02/01 03:16:48;;;;;;;31.88;4.43;;;;;;;9.65;59.96;102019.59;5063631;28;20044;-44
2023/02/01 03:19:30;;;;;;;24.92;3.85;;;;;;;9.89;59.59;102013.44;5059527;28;20033;-42
2023/02/01 03:22:05;;;;;;;26.13;3.55;;;;;;;9.68;60.17;102024.91;5062903;28;20036;-49
2023/02/01 03:24:42;;;;;;;18.70;3.40;;;;;;;9.80;59.52;102019.25;5059928;28;20060;-43
2023/02/01 03:27:31;;;;;;;21.10;3.78;;;;;;;9.48;59.90;102012.91;5060072;28;20032;-42
2023/02/01 03:30:09;;;;;;;27.90;4.05;;;;;;;9.61;59.60;102016.84;5045603;28;20040;-43
2023/02/01 03:35:26;;;;;;;22.63;3.92;;;;;;;10.00;58.45;102005.16;5059894;28;20039;-43
2023/02/01 03:37:56;;;;;;;22.60;3.53;;;;;;;9.50;59.20;102013.84;5065666;28;20037;-41
2023/02/01 03:40:22;;;;;;;22.70;3.15;;;;;;;9.80;58.93;102013.16;5063006;28;20033;-41
2023/02/01 03:42:54;;;;;;;20.77;3.40;;;;;;;9.61;59.44;102016.84;5066282;28;20059;-41
2023/02/01 03:45:29;;;;;;;19.50;3.17;;;;;;;9.81;58.92;102010.63;5062425;28;20041;-42
2023/02/01 03:47:59;;;;;;;27.35;3.70;;;;;;;9.99;58.55;101997.31;5062826;28;20041;-40
2023/02/01 03:50:27;;;;;;;22.98;3.80;;;;;;;9.78;59.02;102000.97;5059107;28;21269;-43
2023/02/01 03:52:58;;;;;;;23.00;3.65;;;;;;;9.62;59.58;102003.00;5063617;28;20032;-41
2023/02/01 03:55:27;;;;;;;26.73;3.67;;;;;;;9.66;59.08;102025.69;5059117;28;20060;-42
2023/02/01 03:58:07;;;;;;;20.05;3.58;;;;;;;9.80;59.17;102027.06;5063059;28;20376;-42
2023/02/01 04:00:33;;;;;;;25.75;3.95;;;;;;;9.36;59.46;102017.66;5058692;28;20051;-42
2023/02/01 04:02:58;;;;;;;19.08;3.60;;;;;;;9.69;58.63;102020.59;5062804;28;20028;-41
2023/02/01 04:05:24;;;;;;;20.20;3.67;;;;;;;9.74;59.41;102022.53;5058562;28;20037;-42
2023/02/01 04:07:49;;;;;;;24.73;3.72;;;;;;;9.70;59.13;102023.25;5062960;28;20052;-43
2023/02/01 04:10:15;;;;;;;19.73;3.03;;;;;;;9.70;59.67;102028.44;5058713;28;20068;-45
2023/02/01 04:12:40;;;;;;;19.58;3.22;;;;;;;9.49;60.08;102022.50;5062447;28;20088;-44
2023/02/01 04:15:06;;;;;;;25.48;3.75;;;;;;;9.65;59.66;102032.63;5058532;28;20064;-42
2023/02/01 04:17:32;;;;;;;19.27;3.22;;;;;;;9.92;59.13;102024.00;5062667;28;20410;-42
2023/02/01 04:19:57;;;;;;;18.52;3.40;;;;;;;9.83;58.81;102031.47;5062445;28;20043;-43
2023/02/01 04:22:22;;;;;;;20.98;3.33;;;;;;;9.63;59.04;102030.81;5058386;28;20040;-41
2023/02/01 04:24:48;;;;;;;20.98;3.53;;;;;;;9.99;58.19;102018.16;5062941;28;20362;-42
2023/02/01 04:27:13;;;;;;;27.95;3.50;;;;;;;10.02;58.29;102019.13;5058846;28;20044;-42
2023/02/01 04:29:39;;;;;;;20.55;3.17;;;;;;;9.76;58.73;102019.97;5063723;28;20060;-41
2023/02/01 04:32:05;;;;;;;18.08;2.63;;;;;;;9.84;59.28;102015.91;5062811;28;20043;-42
2023/02/01 04:34:30;;;;;;;24.33;3.78;;;;;;;9.69;59.36;102011.06;5062928;28;20036;-42
2023/02/01 04:36:56;;;;;;;18.05;3.47;;;;;;;9.68;59.80;102024.91;5064831;28;20096;-46
2023/02/01 04:39:21;;;;;;;23.60;3.30;;;;;;;9.62;60.10;102013.41;5059221;28;20098;-41
2023/02/01 04:41:46;;;;;;;20.38;3.63;;;;;;;9.40;60.39;102011.72;5062437;28;20115;-44
2023/02/01 04:44:18;;;;;;;27.10;3.75;;;;;;;9.47;59.53;102012.84;5058829;28;20056;-42
2023/02/01 04:46:45;;;;;;;19.40;3.20;;;;;;;9.39;60.18;102015.19;5062996;28;20139;-41
2023/02/01 04:49:12;;;;;;;24.80;3.55;;;;;;;9.46;59.58;101996.34;5059256;28;20025;-44
2023/02/01 04:51:38;;;;;;;17.27;3.30;;;;;;;9.18;60.20;101993.56;5062454;28;20562;-44
2023/02/01 04:54:03;;;;;;;24.10;3.40;;;;;;;9.28;60.11;101993.97;5062302;28;20119;-42
2023/02/01 04:56:29;;;;;;;22.45;3.90;;;;;;;9.35;60.37;102002.88;5059132;28;20406;-47
2023/02/01 04:58:55;;;;;;;20.67;3.35;;;;;;;9.09;60.67;102001.91;5062755;28;20569;-42
2023/02/01 05:01:21;;;;;;;21.75;3.47;;;;;;;9.45;60.54;101993.69;5059529;28;20036;-42
2023/02/01 05:03:46;;;;;;;17.67;3.30;;;;;;;9.41;60.37;101997.91;5063724;28;20102;-43
2023/02/01 05:06:12;;;;;;;23.30;3.50;;;;;;;9.11;61.01;102020.19;5060252;28;20041;-42
2023/02/01 05:08:37;;;;;;;26.35;3.30;;;;;;;9.07;61.26;102002.72;5063958;28;20033;-42
2023/02/01 05:11:03;;;;;;;27.25;4.22;;;;;;;9.68;59.52;102000.59;5062256;28;20124;-41
2023/02/01 05:13:47;;;;;;;23.67;3.85;;;;;;;9.71;59.68;102004.19;5058869;28;20121;-42
2023/02/01 05:16:13;;;;;;;27.73;3.85;;;;;;;9.14;61.64;102003.00;5040617;28;20097;-42
2023/02/01 05:18:38;;;;;;;23.15;3.90;;;;;;;9.38;60.89;102008.22;5062741;28;20082;-43
2023/02/01 05:21:04;;;;;;;27.45;4.60;;;;;;;9.12;61.71;102016.78;5062285;28;20044;-44
2023/02/01 05:23:29;;;;;;;29.83;4.20;;;;;;;9.10;61.80;102023.63;5059382;28;20040;-43
2023/02/01 05:26:00;;;;;;;20.38;4.05;;;;;;;9.08;61.83;102028.78;5063638;28;20522;-43
2023/02/01 05:28:26;;;;;;;21.15;3.80;;;;;;;9.33;61.79;102035.78;5058773;28;20068;-43
2023/02/01 05:30:51;;;;;;;18.02;3.40;;;;;;;9.17;61.84;102043.84;5061999;28;20059;-43
2023/02/01 05:33:16;;;;;;;28.50;4.28;;;;;;;9.34;61.80;102040.13;5058531;28;20032;-44
2023/02/01 05:35:42;;;;;;;25.90;3.67;;;;;;;9.22;61.58;102024.97;5062384;28;20052;-43
2023/02/01 05:38:07;;;;;;;25.02;3.63;;;;;;;9.48;60.64;102032.84;5041882;28;20048;-45
2023/02/01 05:40:32;;;;;;;25.30;3.78;;;;;;;9.37;61.43;102029.84;5065317;28;20035;-43
2023/02/01 05:42:58;;;;;;;20.05;3.85;;;;;;;9.59;60.95;102032.41;5064836;28;20047;-40
2023/02/01 05:45:23;;;;;;;22.33;4.15;;;;;;;9.24;60.84;102028.53;5061321;28;20050;-38
2023/02/01 05:47:48;;;;;;;26.67;3.35;;;;;;;9.16;61.14;102027.34;5065686;28;20348;-39
2023/02/01 05:50:14;;;;;;;25.60;4.03;;;;;;;9.55;60.47;102025.31;5061232;28;20061;-41
2023/02/01 05:52:39;;;;;;;20.13;3.50;;;;;;;9.44;60.59;102011.03;5064277;28;20396;-37
2023/02/01 05:55:04;;;;;;;25.02;3.25;;;;;;;9.31;61.26;102027.91;5065895;28;20415;-39
2023/02/01 05:57:30;;;;;;;22.35;3.92;;;;;;;9.38;61.31;102022.94;5062551;28;20028;-39
2023/02/01 05:59:56;;;;;;;20.23;3.35;;;;;;;9.41;61.84;102030.84;5065465;28;20033;-38
2023/02/01 06:02:23;;;;;;;24.85;3.88;;;;;;;9.53;61.22;102029.56;5064580;28;20090;-42
2023/02/01 06:04:49;;;;;;;17.42;3.47;;;;;;;9.58;61.28;102033.22;5067351;28;20410;-40
2023/02/01 06:07:15;;;;;;;28.48;4.15;;;;;;;9.23;62.76;102005.91;5066027;28;20143;-40
2023/02/01 06:09:41;;;;;;;21.63;3.70;;;;;;;9.52;61.58;102029.50;5069445;28;20064;-39
2023/02/01 06:12:06;;;;;;;22.45;3.58;;;;;;;9.28;62.08;102032.09;5066016;28;20048;-43
2023/02/01 06:14:31;;;;;;;22.77;3.55;;;;;;;9.64;61.66;102035.16;5069211;28;20060;-39
2023/02/01 06:16:57;;;;;;;21.58;3.65;;;;;;;9.67;61.19;102038.78;5069739;28;20052;-37
2023/02/01 06:19:22;;;;;;;23.23;3.83;;;;;;;9.70;61.25;102035.38;5066249;28;20406;-42
2023/02/01 06:21:48;;;;;;;20.02;3.75;;;;;;;9.21;62.01;102041.41;5065711;28;20433;-41
2023/02/01 06:24:13;;;;;;;24.83;3.45;;;;;;;9.69;60.24;102039.72;5060352;28;20072;-40
2023/02/01 06:26:39;;;;;;;23.05;4.07;;;;;;;9.85;60.08;102041.13;5064176;28;20032;-39
2023/02/01 06:29:06;;;;;;;19.05;3.13;;;;;;;9.74;60.14;102039.88;5063394;28;20111;-40
2023/02/01 06:31:32;;;;;;;18.80;3.47;;;;;;;9.64;60.09;102048.16;5060361;28;20032;-38
2023/02/01 06:33:57;;;;;;;21.52;3.72;;;;;;;9.66;60.19;102046.50;5063794;28;20582;-39
2023/02/01 06:36:22;;;;;;;27.60;3.67;;;;;;;9.67;60.02;102040.47;5060181;28;20037;-40
2023/02/01 06:38:48;;;;;;;23.33;3.42;;;;;;;9.62;59.76;102029.91;5065554;28;20029;-43
2023/02/01 06:41:14;;;;;;;21.95;3.20;;;;;;;9.52;60.58;102034.72;5066682;28;20054;-41
2023/02/01 06:43:39;;;;;;;18.70;3.35;;;;;;;9.63;60.26;102038.63;5070643;28;20056;-40
2023/02/01 06:46:08;;;;;;;16.20;2.67;;;;;;;9.53;60.34;102039.09;5068679;28;20059;-44
2023/02/01 06:48:33;;;;;;;19.48;2.92;;;;;;;9.66;60.34;102043.91;5066359;28;20036;-42
2023/02/01 06:50:59;;;;;;;20.55;3.55;;;;;;;9.33;61.47;102038.41;5068919;28;20460;-38
2023/02/01 06:53:25;;;;;;;21.50;3.40;;;;;;;9.76;60.47;102032.97;5061996;28;25347;-38
2023/02/01 06:56:02;;;;;;;16.17;3.22;;;;;;;9.61;60.69;102020.31;5065807;28;20028;-39
2023/02/01 06:58:29;;;;;;;19.35;2.90;;;;;;;9.88;59.64;102038.63;5061195;28;20036;-41
2023/02/01 07:00:54;;;;;;;21.52;4.05;;;;;;;9.47;61.09;102042.38;5065221;28;20033;-38
2023/02/01 07:03:20;;;;;;;18.55;3.20;;;;;;;9.45;60.79;102028.44;5042524;28;20470;-40
2023/02/01 07:05:45;;;;;;;17.02;3.67;;;;;;;9.65;60.56;102022.19;5063140;28;20213;-40
2023/02/01 07:08:10;;;;;;;19.38;3.42;;;;;;;9.41;61.37;102034.34;5060012;28;20151;-40
2023/02/01 07:10:37;;;;;;;20.27;3.00;;;;;;;9.75;60.50;102028.63;5063157;28;20387;-42
2023/02/01 07:13:02;;;;;;;20.00;3.20;;;;;;;9.59;61.13;102034.09;5063088;28;20085;-38
2023/02/01 07:15:27;;;;;;;18.48;3.42;;;;;;;9.77;60.14;102032.16;5059787;28;20036;-38
2023/02/01 07:17:56;;;;;;;18.30;3.30;;;;;;;9.54;61.33;102033.94;5064252;28;20036;-40
2023/02/01 07:20:21;;;;;;;17.10;3.25;;;;;;;9.65;61.45;102045.63;5058755;28;20031;-36
2023/02/01 07:22:47;;;;;;;18.02;3.25;;;;;;;9.70;61.46;102043.19;5065917;28;20036;-38
2023/02/01 07:25:12;;;;;;;25.35;3.60;;;;;;;9.31;62.30;102040.94;5061580;28;20398;-35
2023/02/01 07:27:38;;;;;;;18.40;3.28;;;;;;;9.73;61.08;102035.50;5066008;28;20441;-40
2023/02/01 07:30:04;;;;;;;23.33;3.17;;;;;;;9.55;61.13;102046.13;5065775;28;20032;-39
2023/02/01 07:32:30;;;;;;;14.77;2.97;;;;;;;9.93;59.95;102042.28;5059739;28;20070;-39
2023/02/01 07:34:56;;;;;;;19.25;3.60;;;;;;;9.58;61.54;102041.03;5062821;28;20035;-39
2023/02/01 07:37:23;;;;;;;23.83;3.47;;;;;;;9.50;61.69;102039.00;5058641;28;20055;-40
2023/02/01 07:39:49;;;;;;;21.45;3.97;;;;;;;9.49;61.72;102064.13;5062858;28;20448;-42
2023/02/01 07:42:14;;;;;;;22.05;3.53;;;;;;;9.60;61.39;102068.00;5058263;28;20033;-40
2023/02/01 07:44:39;;;;;;;19.95;3.60;;;;;;;9.75;60.88;102063.38;5063730;28;20047;-38
2023/02/01 07:47:05;;;;;;;21.65;3.72;;;;;;;9.49;62.20;102071.94;5061809;28;20040;-44
2023/02/01 07:49:30;;;;;;;19.33;3.60;;;;;;;9.65;61.28;102076.88;5062836;28;20082;-38
2023/02/01 07:51:55;;;;;;;20.30;3.88;;;;;;;9.50;61.74;102073.72;5061462;28;20060;-39
2023/02/01 07:54:21;;;;;;;18.80;2.95;;;;;;;9.32;61.64;102070.44;5071250;22;20503;-48
2023/02/01 07:56:46;;;;;;;22.25;3.40;;;;;;;9.36;61.58;102081.03;5025432;28;20063;-44
2023/02/01 07:59:11;;;;;;;26.33;3.33;;;;;;;9.48;61.40;102067.56;5039317;28;20033;-42
2023/02/01 08:01:37;;;;;;;23.27;3.05;;;;;;;9.38;62.01;102068.06;5042927;28;20119;-43
2023/02/01 08:04:03;;;;;;;20.63;3.20;;;;;;;9.39;61.91;102067.25;5042924;28;20040;-44
2023/02/01 08:06:31;;;;;;;24.45;4.30;;;;;;;9.84;61.08;102064.50;5039046;28;20045;-43
2023/02/01 08:08:57;;;;;;;28.85;4.13;;;;;;;9.51;62.08;102072.00;5043545;28;20124;-43
2023/02/01 08:11:24;;;;;;;22.73;3.75;;;;;;;9.68;61.58;102063.97;5038721;28;20119;-44
2023/02/01 08:13:50;;;;;;;24.08;3.45;;;;;;;9.53;61.89;102065.13;5043067;28;20037;-44
2023/02/01 08:16:17;;;;;;;23.05;3.47;;;;;;;9.51;62.04;102053.78;5038757;28;20025;-41
2023/02/01 08:18:43;;;;;;;21.67;4.07;;;;;;;9.71;61.29;102063.19;5044266;28;20025;-43
2023/02/01 08:21:11;;;;;;;26.15;3.92;;;;;;;9.49;62.08;102055.44;5039891;28;20029;-44
2023/02/01 08:23:38;;;;;;;18.83;3.70;;;;;;;9.61;61.35;102061.97;5043718;28;20430;-47
2023/02/01 08:26:18;;;;;;;27.73;4.05;;;;;;;9.73;61.33;102051.13;5042545;28;20040;-45
2023/02/01 08:28:47;;;;;;;20.65;3.72;;;;;;;9.97;61.24;102046.75;5039075;28;20119;-45
2023/02/01 08:31:14;;;;;;;20.63;3.42;;;;;;;9.83;60.62;102039.28;5038061;28;20036;-46
2023/02/01 08:33:40;;;;;;;23.08;3.35;;;;;;;9.68;61.07;102045.75;5042618;28;20041;-44
2023/02/01 08:36:07;;;;;;;19.30;3.65;;;;;;;9.62;61.46;102036.84;5034367;28;20056;-43
2023/02/01 08:38:34;;;;;;;23.75;3.35;;;;;;;9.80;61.17;102045.28;5024336;28;20041;-44
2023/02/01 08:41:05;;;;;;;25.60;3.70;;;;;;;9.93;60.33;102057.91;5023272;28;20034;-43
2023/02/01 08:43:30;;;;;;;19.00;3.40;;;;;;;10.19;59.69;102051.00;5042314;28;20121;-44
2023/02/01 08:45:55;;;;;;;22.45;4.57;;;;;;;9.99;60.44;102046.81;5046091;28;20132;-42
2023/02/01 08:48:21;;;;;;;29.40;4.00;;;;;;;10.13;59.97;102048.16;5042034;28;20033;-44
2023/02/01 08:50:46;;;;;;;18.75;3.10;;;;;;;9.83;61.13;102048.00;5043690;28;20033;-44
2023/02/01 08:53:13;;;;;;;22.02;3.80;;;;;;;9.73;61.30;102040.69;5042485;28;20506;-44
2023/02/01 08:55:39;;;;;;;18.90;3.08;;;;;;;10.14;60.31;102026.47;5027763;28;20376;-48
2023/02/01 08:58:04;;;;;;;20.67;3.42;;;;;;;10.03;60.45;102017.44;5045973;28;20048;-44
2023/02/01 09:00:29;;;;;;;20.30;3.53;;;;;;;9.66;61.64;102023.97;5038106;28;20491;-46
2023/02/01 09:02:55;;;;;;;20.20;3.15;;;;;;;10.55;59.59;102022.66;5043521;28;20040;-47
2023/02/01 09:05:22;;;;;;;20.85;3.25;;;;;;;10.13;61.15;102025.59;5038949;28;20033;-46
2023/02/01 09:07:47;;;;;;;27.65;4.13;;;;;;;10.65;59.40;102010.78;5042972;28;20044;-45
2023/02/01 09:10:12;;;;;;;20.27;3.60;;;;;;;10.46;59.95;102020.63;5039782;28;20033;-45
2023/02/01 09:12:38;;;;;;;21.73;3.90;;;;;;;10.28;59.80;102032.19;5044647;28;20148;-44
2023/02/01 09:16:40;;;;;;;24.58;3.58;;;;;;;10.41;59.76;102018.72;5061076;28;20875;-45
2023/02/01 09:19:05;;;;;;;20.42;3.63;;;;;;;9.91;60.79;102010.09;5057594;28;20079;-44
2023/02/01 09:21:30;;;;;;;29.83;4.97;;;;;;;10.27;60.26;102020.88;5058395;28;20134;-48
2023/02/01 09:23:56;;;;;;;23.55;3.65;;;;;;;9.98;59.98;102026.81;5060675;28;20132;-46
2023/02/01 09:26:21;;;;;;;21.30;3.75;;;;;;;10.01;60.60;102025.19;5056502;28;20029;-45
2023/02/01 09:28:46;;;;;;;21.88;3.42;;;;;;;9.92;61.01;102024.00;5060704;28;20423;-45
2023/02/01 09:31:12;;;;;;;25.45;3.67;;;;;;;10.43;59.44;102024.88;5052541;22;20041;-40
2023/02/01 09:33:37;;;;;;;18.73;3.78;;;;;;;10.13;60.47;102036.00;5039439;28;20040;-41
2023/02/01 09:36:04;;;;;;;25.70;4.22;;;;;;;10.36;59.38;102039.44;5039197;28;20041;-43
2023/02/01 09:38:31;;;;;;;19.85;3.55;;;;;;;10.23;60.06;102034.66;5035246;28;20492;-39
2023/02/01 09:40:58;;;;;;;23.85;4.68;;;;;;;10.43;60.00;102028.34;5038190;28;20040;-40
2023/02/01 09:43:39;;;;;;;29.15;4.10;;;;;;;10.24;60.16;102043.38;5034996;28;20040;-41
2023/02/01 09:46:23;;;;;;;20.77;4.07;;;;;;;10.18;60.49;102042.28;5039197;28;20040;-41
2023/02/01 09:48:53;;;;;;;23.33;3.90;;;;;;;10.39;59.58;102043.84;5036453;28;20094;-42
2023/02/01 09:51:23;;;;;;;23.58;3.60;;;;;;;10.25;59.87;102046.00;5036297;28;20468;-41
2023/02/01 09:54:05;;;;;;;21.35;3.45;;;;;;;10.18;60.29;102058.78;5041114;28;20033;-42
2023/02/01 09:56:41;;;;;;;21.77;4.38;;;;;;;10.25;60.02;102035.56;5036067;28;20041;-43
2023/02/01 09:59:15;;;;;;;26.10;3.47;;;;;;;10.12;60.51;102036.84;5035004;28;20048;-42
2023/02/01 10:01:42;;;;;;;25.90;3.45;;;;;;;9.94;60.19;102037.97;5037847;28;20399;-43
2023/02/01 10:04:12;;;;;;;32.80;4.20;;;;;;;10.00;60.12;102033.81;5038343;28;20112;-41
2023/02/01 10:06:40;;;;;;;21.50;3.42;;;;;;;10.18;59.87;102033.63;5034328;28;20167;-44
2023/02/01 10:09:50;;;;;;;20.48;3.45;;;;;;;10.38;59.07;102055.09;5035279;28;20041;-42
2023/02/01 10:12:34;;;;;;;22.25;3.58;;;;;;;9.98;60.46;102045.03;5033664;28;20045;-41
2023/02/01 10:15:02;;;;;;;23.67;3.33;;;;;;;10.52;58.84;102035.59;5038327;28;20120;-44
2023/02/01 10:18:01;;;;;;;17.83;3.25;;;;;;;10.32;59.33;102040.16;5033960;28;20129;-40
2023/02/01 10:20:30;;;;;;;17.38;3.60;;;;;;;10.02;59.64;102054.72;5033466;28;20052;-41
2023/02/01 10:23:20;;;;;;;23.13;3.67;;;;;;;10.20;60.13;102054.50;5037905;28;20041;-41
2023/02/01 10:26:07;;;;;;;24.17;3.67;;;;;;;10.04;60.43;102045.25;5033758;28;20140;-44
2023/02/01 10:28:36;;;;;;;18.63;3.40;;;;;;;10.20;60.21;102037.16;5020591;28;20116;-42
2023/02/01 10:31:02;;;;;;;18.08;3.47;;;;;;;10.03;60.67;102039.16;5025011;28;20566;-40
2023/02/01 10:33:35;;;;;;;24.20;3.40;;;;;;;9.95;60.90;102032.78;5022169;28;20033;-42
2023/02/01 10:36:28;;;;;;;25.88;3.75;;;;;;;10.61;60.01;102033.28;5026598;28;20038;-43
2023/02/01 10:38:54;;;;;;;21.20;3.20;;;;;;;10.45;59.37;102031.91;5023778;28;20029;-41
2023/02/01 10:41:21;;;;;;;25.08;3.42;;;;;;;10.47;59.58;102027.63;5023075;28;20107;-41
2023/02/01 10:43:54;;;;;;;25.10;3.55;;;;;;;10.68;59.05;102035.22;5026753;28;20091;-41
2023/02/01 10:46:22;;;;;;;24.88;3.42;;;;;;;10.44;59.87;102044.88;5022935;28;20064;-41
2023/02/01 10:48:48;;;;;;;18.35;3.45;;;;;;;10.42;59.66;102028.31;5026176;28;20515;-42
2023/02/01 10:51:22;;;;;;;25.27;3.80;;;;;;;10.56;58.99;102030.50;5021975;28;20385;-41
2023/02/01 10:53:57;;;;;;;19.42;3.35;;;;;;;10.32;59.51;102031.44;5026445;28;20034;-41
2023/02/01 10:56:26;;;;;;;;;;;;;;;10.52;58.75;102028.66;5023191;28;20496;-41
2023/02/01 10:59:00;;;;;;;18.40;3.30;;;;;;;10.45;59.04;102033.63;5026369;28;20036;-43
2023/02/01 11:01:40;;;;;;;20.20;3.70;;;;;;;10.68;58.82;102027.41;5021451;28;20064;-41
2023/02/01 11:04:12;;;;;;;19.17;3.42;;;;;;;10.46;59.49;102023.25;5021346;28;20049;-40
2023/02/01 11:06:40;;;;;;;20.02;3.30;;;;;;;10.42;59.25;102036.16;5025414;28;20037;-42
2023/02/01 11:09:06;;;;;;;29.25;4.05;;;;;;;10.77;58.37;102022.50;5025076;28;20044;-43
2023/02/01 11:11:32;;;;;;;22.63;3.60;;;;;;;10.60;58.87;102020.19;5019665;28;20389;-44
2023/02/01 11:14:00;;;;;;;22.88;3.45;;;;;;;10.70;58.78;102009.19;5025336;28;20033;-41
2023/02/01 11:16:37;;;;;;;22.58;3.65;;;;;;;10.66;58.37;102023.00;5022953;28;20048;-41
2023/02/01 11:19:03;;;;;;;21.17;3.40;;;;;;;10.91;57.99;102008.16;5026719;28;20547;-40
2023/02/01 11:21:29;;;;;;;25.60;4.03;;;;;;;10.61;58.82;102017.66;5019586;28;20087;-44
2023/02/01 11:23:59;;;;;;;18.25;3.47;;;;;;;10.49;58.78;102017.25;5024137;28;20424;-41
2023/02/01 11:26:27;;;;;;;26.77;3.65;;;;;;;10.46;59.00;102020.63;5020065;28;20041;-43
2023/02/01 11:28:59;;;;;;;18.88;3.47;;;;;;;10.42;59.72;102030.94;5024831;28;20071;-41
2023/02/01 11:31:26;;;;;;;21.38;3.42;;;;;;;10.37;59.54;102029.91;5020628;28;20037;-41
2023/02/01 11:34:16;;;;;;;20.35;2.88;;;;;;;11.06;57.17;102022.47;5026000;28;20082;-43
2023/02/01 11:36:45;;;;;;;18.05;3.40;;;;;;;10.54;58.96;102020.91;5014283;28;20041;-40
2023/02/01 11:39:13;;;;;;;22.85;3.80;;;;;;;10.41;59.10;102018.72;5021217;28;20033;-42
2023/02/01 11:41:41;;;;;;;23.40;3.88;;;;;;;10.46;59.21;102015.44;5025445;28;20072;-44
2023/02/01 11:44:21;;;;;;;23.52;3.47;;;;;;;11.12;57.11;102017.44;5021855;28;20095;-43
2023/02/01 11:46:47;;;;;;;20.40;3.40;;;;;;;10.75;58.46;102018.06;5025458;28;20075;-42
2023/02/01 11:49:24;;;;;;;20.38;3.40;;;;;;;10.87;57.82;102021.03;5022233;28;20038;-43
2023/02/01 11:52:28;;;;;;;26.17;3.60;;;;;;;10.94;58.16;102026.50;5026009;28;20037;-42
2023/02/01 11:55:22;;;;;;;20.92;3.40;;;;;;;10.31;59.35;102037.50;5015431;28;20124;-41
2023/02/01 11:57:59;;;;;;;16.90;3.58;;;;;;;10.64;58.67;101996.88;5020413;28;20033;-42
2023/02/01 12:00:39;;;;;;;24.67;4.10;;;;;;;10.46;59.33;101978.94;5018637;28;20049;-41
2023/02/01 12:03:35;;;;;;;17.00;3.28;;;;;;;10.68;58.74;102003.94;5023108;28;20026;-43